Purysburgh, South Carolina
Current Conditions -  °F | °C
As of 12:53 AM on Sunday 21 Dec 2014 (Local Time) from KSAV Reporting Station
Overcast Overcast  
Wind Chill: 51°   Ceiling: 400
Heat Index: 51°   Visibility: 9mi
Dew Point: 48°   Wind: 8mph
Humidity: 89%   Direction: 30°NNE
Pressure: 30.18"   Gusts: NA
Location:  32.2576°N, 81.057°W
Report Text: KSAV 210553Z AUTO 03007KT 9SM OVC004 11/09 A3018 RMK AO2 RAE0457 SLP219 P0000 60000 T01060089 10122 20106 58008 TSNO
Loading
Personal Weather Stations






























Interactive Weather Map New forecast layout! Learn more

10-Day Weather Forecast

Advertisements
Track Severe Weather on mobile